Time;durP1;ratioP1;P1;durP2;ratioP2;P2;SDS_P1;SDS_P2;PMS_P1;PMS_P2;Temp;Humidity;BMP_temperature;BMP_pressure;BME280_temperature;BME280_humidity;BME280_pressure;Samples;Min_cycle;Max_cycle;Signal;HPM_P1;HPM_P2
2021/03/15 00:01:42;;;;;;;8.30;1.08;;;6.10;94.10;;;;;;5027058;28;20037;-78
2021/03/15 00:04:07;;;;;;;5.13;0.90;;;6.10;94.10;;;;;;5031375;28;20036;-78
2021/03/15 00:06:33;;;;;;;9.73;1.08;;;6.00;94.10;;;;;;5011854;28;20033;-79
2021/03/15 00:08:58;;;;;;;8.35;1.27;;;6.00;94.20;;;;;;5020243;28;20472;-79
2021/03/15 00:11:24;;;;;;;8.38;1.23;;;5.90;94.30;;;;;;5030542;28;20484;-79
2021/03/15 00:13:49;;;;;;;3.35;0.73;;;5.90;94.40;;;;;;5031579;28;20083;-79
2021/03/15 00:16:15;;;;;;;6.63;1.00;;;5.90;94.40;;;;;;5027636;28;20102;-80
2021/03/15 00:18:40;;;;;;;5.03;1.35;;;5.90;94.50;;;;;;5027135;28;20116;-79
2021/03/15 00:21:06;;;;;;;4.93;0.80;;;5.90;94.50;;;;;;5027244;28;20422;-79
2021/03/15 00:23:31;;;;;;;4.70;0.80;;;5.90;94.60;;;;;;5028820;28;20058;-79
2021/03/15 00:25:57;;;;;;;3.05;0.68;;;5.90;94.60;;;;;;5030340;28;20120;-78
2021/03/15 00:28:22;;;;;;;5.63;1.52;;;5.90;94.70;;;;;;5017999;28;20476;-79
2021/03/15 00:30:48;;;;;;;6.13;0.90;;;5.90;94.70;;;;;;5026177;28;20396;-79
2021/03/15 00:33:14;;;;;;;4.88;0.80;;;5.90;94.70;;;;;;5017282;28;20438;-79
2021/03/15 00:35:39;;;;;;;9.52;1.30;;;5.90;94.60;;;;;;5029236;28;20471;-79
2021/03/15 00:38:05;;;;;;;5.88;0.90;;;5.90;94.60;;;;;;5023028;28;20026;-79
2021/03/15 00:40:30;;;;;;;9.25;1.50;;;5.90;94.70;;;;;;5029005;28;20112;-78
2021/03/15 00:42:56;;;;;;;9.55;1.27;;;5.90;94.80;;;;;;5024304;28;20021;-79
2021/03/15 00:45:24;;;;;;;3.03;0.80;;;5.80;94.80;;;;;;5031077;28;20075;-79
2021/03/15 00:47:51;;;;;;;6.50;1.10;;;5.80;94.90;;;;;;5032388;28;20112;-78
2021/03/15 00:50:18;;;;;;;5.28;1.05;;;5.80;94.90;;;;;;5031005;28;20120;-79
2021/03/15 00:52:44;;;;;;;8.05;0.90;;;5.80;94.90;;;;;;5031848;28;20501;-79
2021/03/15 00:55:09;;;;;;;7.63;1.50;;;5.80;94.90;;;;;;5011746;28;20094;-79
2021/03/15 00:57:35;;;;;;;5.55;1.33;;;5.80;94.90;;;;;;5019673;28;20311;-79
2021/03/15 01:00:00;;;;;;;5.20;1.40;;;5.80;95.00;;;;;;5032730;28;20078;-79
2021/03/15 01:02:26;;;;;;;3.85;0.80;;;5.80;95.00;;;;;;5033192;28;20116;-78
2021/03/15 01:04:51;;;;;;;7.82;1.27;;;5.80;95.00;;;;;;5023759;28;20361;-79
2021/03/15 01:07:19;;;;;;;6.20;1.55;;;5.80;95.00;;;;;;5025520;28;20030;-79
2021/03/15 01:09:44;;;;;;;4.93;1.52;;;5.80;95.10;;;;;;5030685;28;20506;-79
2021/03/15 01:12:10;;;;;;;4.47;1.33;;;5.80;95.10;;;;;;5026059;28;20025;-79
2021/03/15 01:14:35;;;;;;;5.63;1.88;;;5.90;95.10;;;;;;5029297;28;21925;-79
2021/03/15 01:17:01;;;;;;;8.75;1.98;;;5.80;95.10;;;;;;5032558;28;20388;-79
2021/03/15 01:19:27;;;;;;;7.20;1.90;;;5.80;95.10;;;;;;5031463;28;20480;-79
2021/03/15 01:21:53;;;;;;;10.57;2.58;;;5.80;95.10;;;;;;5030821;28;20026;-79
2021/03/15 01:24:19;;;;;;;8.02;2.15;;;5.90;95.20;;;;;;5027381;28;20510;-79
2021/03/15 01:26:45;;;;;;;5.00;1.75;;;5.90;95.20;;;;;;5026135;28;20025;-78
2021/03/15 01:29:11;;;;;;;7.53;2.10;;;5.90;95.20;;;;;;5033890;28;20041;-78
2021/03/15 01:31:36;;;;;;;9.98;2.40;;;5.90;95.20;;;;;;5034688;28;20096;-78
2021/03/15 01:34:02;;;;;;;9.32;2.60;;;5.90;95.20;;;;;;5027643;28;20083;-78
2021/03/15 01:36:27;;;;;;;7.18;2.30;;;5.90;95.20;;;;;;5032076;28;20025;-78
2021/03/15 01:38:53;;;;;;;7.63;3.05;;;5.90;95.20;;;;;;5031243;28;20034;-78
2021/03/15 01:41:18;;;;;;;9.07;2.58;;;5.90;95.20;;;;;;5033913;28;20488;-78
2021/03/15 01:43:44;;;;;;;8.65;3.03;;;6.00;95.30;;;;;;5036377;28;20048;-77
2021/03/15 01:46:10;;;;;;;9.52;2.92;;;5.90;95.30;;;;;;5033815;28;20087;-78
2021/03/15 01:48:36;;;;;;;11.30;2.90;;;6.00;95.30;;;;;;5032039;28;20427;-78
2021/03/15 01:51:02;;;;;;;7.57;2.70;;;6.00;95.30;;;;;;5035263;28;20483;-78
2021/03/15 01:53:27;;;;;;;10.10;2.67;;;6.00;95.30;;;;;;5031295;28;20034;-78
2021/03/15 01:55:53;;;;;;;6.75;2.88;;;6.00;95.30;;;;;;5034527;28;20014;-78
2021/03/15 01:58:19;;;;;;;7.88;2.78;;;6.00;95.20;;;;;;5035029;28;20029;-79
2021/03/15 02:00:45;;;;;;;6.70;1.92;;;6.00;95.20;;;;;;5027963;28;20032;-78
2021/03/15 02:03:12;;;;;;;5.78;2.85;;;5.90;95.20;;;;;;5036012;28;20022;-78
2021/03/15 02:05:40;;;;;;;6.10;3.42;;;5.90;95.20;;;;;;5025178;28;20555;-78
2021/03/15 02:08:06;;;;;;;10.55;3.60;;;5.90;95.20;;;;;;5024359;28;20376;-79
2021/03/15 02:10:33;;;;;;;9.88;3.30;;;5.90;95.20;;;;;;5031264;28;20038;-79
2021/03/15 02:13:38;;;;;;;9.18;3.13;;;5.80;95.10;;;;;;5017500;28;20049;-79
2021/03/15 02:16:21;;;;;;;7.35;4.00;;;5.80;95.10;;;;;;5034200;28;20079;-78
2021/03/15 02:18:49;;;;;;;5.72;3.85;;;5.80;95.20;;;;;;5035699;28;20083;-79
2021/03/15 02:21:51;;;;;;;7.10;4.05;;;5.80;95.20;;;;;;5034965;28;20557;-78
2021/03/15 02:25:00;;;;;;;6.97;4.38;;;5.70;95.20;;;;;;5033834;28;20044;-79
2021/03/15 02:28:03;;;;;;;8.90;4.57;;;5.70;95.20;;;;;;5021877;28;20027;-79
2021/03/15 02:30:40;;;;;;;7.75;4.07;;;5.70;95.30;;;;;;5030029;28;20065;-78
2021/03/15 02:33:24;;;;;;;8.10;5.13;;;5.70;95.40;;;;;;5028328;28;20024;-77
2021/03/15 02:35:51;;;;;;;6.68;4.55;;;5.70;95.40;;;;;;5034256;28;20483;-79
2021/03/15 02:38:19;;;;;;;9.63;4.95;;;5.60;95.40;;;;;;5029891;28;20380;-78
2021/03/15 02:40:47;;;;;;;9.27;4.75;;;5.60;95.50;;;;;;5032500;28;20384;-77
2021/03/15 02:43:23;;;;;;;7.45;4.80;;;5.60;95.50;;;;;;5029337;28;20436;-79
2021/03/15 02:45:59;;;;;;;8.68;5.05;;;5.60;95.50;;;;;;5034469;28;20060;-79
2021/03/15 02:48:27;;;;;;;9.88;4.43;;;5.60;95.60;;;;;;5027127;28;20026;-78
2021/03/15 02:50:54;;;;;;;8.52;3.75;;;5.60;95.60;;;;;;5032144;28;20037;-78
2021/03/15 02:53:20;;;;;;;8.65;4.93;;;5.60;95.70;;;;;;5032722;28;20079;-78
2021/03/15 02:55:49;;;;;;;7.38;4.13;;;5.60;95.80;;;;;;5019357;28;20034;-76
2021/03/15 02:58:17;;;;;;;8.10;3.88;;;5.60;95.80;;;;;;5021947;28;20021;-77
2021/03/15 03:00:43;;;;;;;6.95;4.28;;;5.60;95.90;;;;;;5021674;28;20049;-76
2021/03/15 03:03:09;;;;;;;13.20;4.25;;;5.60;95.90;;;;;;5018120;28;20030;-76
2021/03/15 03:05:36;;;;;;;7.88;3.92;;;5.60;96.00;;;;;;5022449;28;20484;-77
2021/03/15 03:08:03;;;;;;;11.25;4.45;;;5.60;96.00;;;;;;5034227;28;20029;-77
2021/03/15 03:10:30;;;;;;;7.60;3.33;;;5.60;96.00;;;;;;5022538;28;20030;-77
2021/03/15 03:12:57;;;;;;;6.95;3.38;;;5.60;96.10;;;;;;5030324;28;20513;-77
2021/03/15 03:15:34;;;;;;;5.57;3.70;;;5.60;96.10;;;;;;5030833;28;20030;-76
2021/03/15 03:18:02;;;;;;;9.73;3.88;;;5.70;96.10;;;;;;5017897;28;20025;-76
2021/03/15 03:20:29;;;;;;;9.63;3.58;;;5.70;96.20;;;;;;5031415;28;20041;-76
2021/03/15 03:22:59;;;;;;;9.27;3.42;;;5.70;96.10;;;;;;5034285;28;20021;-77
2021/03/15 03:25:25;;;;;;;11.52;4.20;;;5.70;96.10;;;;;;5033725;28;20033;-77
2021/03/15 03:27:55;;;;;;;10.02;3.15;;;5.70;96.10;;;;;;5034633;28;20029;-76
2021/03/15 03:30:30;;;;;;;8.80;3.67;;;5.70;96.10;;;;;;5030787;28;20140;-76
2021/03/15 03:32:58;;;;;;;6.63;3.40;;;5.70;96.10;;;;;;5031454;28;20014;-76
2021/03/15 03:35:24;;;;;;;11.07;3.17;;;5.70;96.10;;;;;;5014347;28;20042;-76
2021/03/15 03:37:49;;;;;;;6.80;3.00;;;5.70;96.10;;;;;;5027335;28;20026;-76
2021/03/15 03:40:16;;;;;;;6.13;3.75;;;5.70;96.10;;;;;;5027428;28;20037;-77
2021/03/15 03:42:42;;;;;;;11.18;3.65;;;5.70;96.10;;;;;;5018234;28;20091;-76
2021/03/15 03:45:08;;;;;;;6.82;3.55;;;5.70;96.40;;;;;;5023353;28;20056;-77
2021/03/15 03:47:35;;;;;;;11.35;3.35;;;5.70;96.20;;;;;;5028820;28;20441;-76
2021/03/15 03:50:02;;;;;;;8.45;4.28;;;5.70;96.20;;;;;;5026740;28;20164;-76
2021/03/15 03:52:30;;;;;;;8.38;4.15;;;5.60;96.20;;;;;;5022456;28;20017;-76
2021/03/15 03:54:59;;;;;;;10.13;4.22;;;5.70;96.30;;;;;;5031895;28;20036;-76
2021/03/15 03:57:31;;;;;;;8.63;4.65;;;5.60;96.30;;;;;;5031192;28;20482;-76
2021/03/15 04:00:00;;;;;;;12.07;4.07;;;5.70;96.30;;;;;;5032845;28;20037;-76
2021/03/15 04:02:27;;;;;;;10.88;4.57;;;5.70;96.30;;;;;;5032983;28;20044;-76
2021/03/15 04:05:07;;;;;;;8.15;4.38;;;5.70;96.20;;;;;;5024470;28;20099;-76
2021/03/15 04:07:38;;;;;;;9.15;4.05;;;5.70;96.30;;;;;;5025763;28;20109;-76
2021/03/15 04:10:09;;;;;;;10.77;4.15;;;5.70;96.30;;;;;;5019503;28;20061;-76
2021/03/15 04:12:40;;;;;;;13.20;4.35;;;5.70;96.20;;;;;;5031206;28;20028;-76
2021/03/15 04:15:06;;;;;;;14.13;4.93;;;5.70;96.20;;;;;;5034017;28;20112;-76
2021/03/15 04:17:39;;;;;;;12.25;4.82;;;5.70;96.20;;;;;;5030468;28;20038;-77
2021/03/15 04:20:07;;;;;;;9.50;5.22;;;5.70;96.20;;;;;;5028915;28;20075;-76
2021/03/15 04:22:38;;;;;;;11.07;4.90;;;5.70;96.20;;;;;;5026000;28;20083;-76
2021/03/15 04:25:05;;;;;;;12.40;5.55;;;5.70;96.20;;;;;;5024507;28;20046;-76
2021/03/15 04:27:32;;;;;;;11.88;5.90;;;5.70;96.20;;;;;;5002754;28;20053;-76
2021/03/15 04:29:59;;;;;;;9.77;5.40;;;5.70;96.20;;;;;;5024966;28;20092;-76
2021/03/15 04:32:26;;;;;;;15.98;6.25;;;5.70;96.20;;;;;;5021547;28;20030;-77
2021/03/15 04:34:52;;;;;;;13.77;6.70;;;5.70;96.20;;;;;;5029393;28;20096;-76
2021/03/15 04:37:19;;;;;;;11.75;6.65;;;5.80;96.30;;;;;;5023391;28;20026;-76
2021/03/15 04:39:46;;;;;;;16.90;7.50;;;5.80;96.30;;;;;;5012808;28;20025;-76
2021/03/15 04:42:11;;;;;;;10.32;5.95;;;5.80;96.30;;;;;;5017737;28;20057;-76
2021/03/15 04:44:38;;;;;;;13.05;6.45;;;5.80;96.30;;;;;;5009990;28;20439;-76
2021/03/15 04:47:05;;;;;;;12.18;7.13;;;5.70;96.20;;;;;;5029628;28;20052;-76
2021/03/15 04:49:32;;;;;;;15.93;7.43;;;5.80;96.30;;;;;;5030695;28;20098;-76
2021/03/15 04:51:58;;;;;;;14.32;7.38;;;5.80;96.20;;;;;;5027250;28;20032;-76
2021/03/15 04:54:24;;;;;;;20.08;8.27;;;5.80;96.20;;;;;;5032748;28;20388;-76
2021/03/15 04:56:52;;;;;;;13.82;7.15;;;5.80;96.20;;;;;;5032865;28;20022;-76
2021/03/15 04:59:19;;;;;;;20.50;7.40;;;5.80;96.20;;;;;;5031462;28;20026;-76
2021/03/15 05:01:46;;;;;;;13.70;5.90;;;5.80;96.20;;;;;;5024539;28;20120;-76
2021/03/15 05:04:13;;;;;;;16.98;8.00;;;5.80;96.10;;;;;;5030373;28;20472;-76
2021/03/15 05:06:43;;;;;;;13.93;6.10;;;5.80;96.10;;;;;;5036182;28;20041;-76
2021/03/15 05:09:10;;;;;;;15.80;6.95;;;5.80;96.00;;;;;;5027495;28;20472;-76
2021/03/15 05:11:37;;;;;;;16.08;6.65;;;5.80;96.00;;;;;;5022680;28;20062;-76
2021/03/15 05:14:04;;;;;;;11.52;6.13;;;5.80;95.90;;;;;;5030554;28;20553;-76
2021/03/15 05:16:34;;;;;;;15.88;6.93;;;5.80;95.90;;;;;;5032165;28;20022;-76
2021/03/15 05:19:02;;;;;;;15.95;6.55;;;5.70;95.90;;;;;;5030240;28;20025;-76
2021/03/15 05:21:28;;;;;;;13.02;7.47;;;5.70;95.90;;;;;;5025879;28;20506;-76
2021/03/15 05:23:56;;;;;;;17.05;7.80;;;5.70;95.90;;;;;;5026930;28;20547;-76
2021/03/15 05:26:22;;;;;;;18.70;9.80;;;5.70;95.80;;;;;;5027096;28;20034;-76
2021/03/15 05:28:49;;;;;;;18.42;8.63;;;5.60;95.80;;;;;;5027288;28;20041;-76
2021/03/15 05:31:16;;;;;;;21.67;9.60;;;5.50;95.80;;;;;;5023979;28;20365;-76
2021/03/15 05:33:44;;;;;;;15.43;8.48;;;5.40;95.90;;;;;;5020677;28;20468;-76
2021/03/15 05:36:13;;;;;;;18.40;9.27;;;5.40;96.00;;;;;;5022967;28;20041;-76
2021/03/15 05:38:39;;;;;;;21.08;9.40;;;5.40;96.10;;;;;;5018742;28;20476;-76
2021/03/15 05:41:08;;;;;;;16.58;9.02;;;5.40;96.20;;;;;;5022720;28;20034;-76
2021/03/15 05:44:08;;;;;;;22.48;8.52;;;5.40;96.20;;;;;;5017473;28;20391;-76
2021/03/15 05:46:55;;;;;;;17.13;9.18;;;5.40;96.20;;;;;;5013045;28;20111;-76
2021/03/15 05:49:39;;;;;;;21.08;9.30;;;5.40;96.30;;;;;;5030334;28;20361;-76
2021/03/15 05:52:25;;;;;;;18.10;8.48;;;5.40;96.30;;;;;;5031398;28;20060;-76
2021/03/15 05:55:09;;;;;;;22.00;10.52;;;5.50;96.30;;;;;;5029613;28;20040;-77
2021/03/15 05:57:55;;;;;;;21.90;9.95;;;5.50;96.30;;;;;;5027300;28;20029;-76
2021/03/15 06:00:40;;;;;;;24.95;9.93;;;5.50;96.20;;;;;;5027933;28;20115;-76
2021/03/15 06:03:12;;;;;;;25.63;11.20;;;5.50;96.30;;;;;;5021347;28;20029;-76
2021/03/15 06:05:44;;;;;;;19.92;10.10;;;5.50;96.30;;;;;;5031402;28;20040;-76
2021/03/15 06:08:20;;;;;;;21.40;10.70;;;5.50;96.20;;;;;;5023585;28;20045;-76
2021/03/15 06:10:56;;;;;;;27.70;12.27;;;5.40;96.20;;;;;;5031320;28;20042;-76
2021/03/15 06:13:22;;;;;;;25.75;11.40;;;5.40;96.20;;;;;;5025755;28;20387;-76
2021/03/15 06:15:50;;;;;;;22.30;9.95;;;5.40;96.20;;;;;;5029914;28;20021;-75
2021/03/15 06:18:16;;;;;;;26.63;11.57;;;5.30;96.20;;;;;;5034676;28;20422;-74
2021/03/15 06:20:48;;;;;;;24.33;11.27;;;5.20;96.30;;;;;;5033847;28;20482;-74
2021/03/15 06:23:17;;;;;;;24.83;11.83;;;5.20;96.30;;;;;;5030985;28;20045;-74
2021/03/15 06:25:47;;;;;;;24.23;11.13;;;5.20;96.40;;;;;;5030014;28;20287;-74
2021/03/15 06:28:14;;;;;;;28.35;11.32;;;5.20;96.40;;;;;;5034750;28;20029;-75
2021/03/15 06:30:41;;;;;;;21.98;11.32;;;5.20;96.50;;;;;;5026814;28;20061;-75
2021/03/15 06:33:07;;;;;;;31.83;13.18;;;5.20;96.60;;;;;;5024617;28;20026;-75
2021/03/15 06:35:49;;;;;;;28.38;12.65;;;5.20;96.60;;;;;;5030778;28;20037;-75
2021/03/15 06:38:18;;;;;;;22.50;11.15;;;5.30;96.60;;;;;;5035040;28;20483;-75
2021/03/15 06:40:44;;;;;;;26.23;13.13;;;5.30;96.60;;;;;;5021349;28;20091;-75
2021/03/15 06:43:15;;;;;;;33.75;12.60;;;5.40;96.60;;;;;;5032871;28;20029;-75
2021/03/15 06:45:48;;;;;;;28.92;12.68;;;5.40;96.50;;;;;;5028465;28;20026;-75
2021/03/15 06:48:15;;;;;;;30.60;14.68;;;5.40;96.50;;;;;;5026680;28;20492;-75
2021/03/15 06:50:40;;;;;;;27.30;12.73;;;5.40;96.50;;;;;;5021204;28;20096;-75
2021/03/15 06:53:06;;;;;;;26.42;12.77;;;5.40;96.50;;;;;;5025687;28;20034;-75
2021/03/15 06:55:43;;;;;;;33.75;14.98;;;5.40;96.80;;;;;;5027075;28;20397;-75
2021/03/15 06:58:18;;;;;;;26.20;13.57;;;5.40;96.50;;;;;;5034471;28;20083;-75
2021/03/15 07:00:47;;;;;;;27.77;14.65;;;5.40;96.50;;;;;;5034404;28;20033;-76
2021/03/15 07:03:23;;;;;;;28.00;13.57;;;5.40;96.50;;;;;;5029698;28;20035;-76
2021/03/15 07:05:58;;;;;;;26.70;13.40;;;5.40;96.40;;;;;;5033048;28;20029;-76
2021/03/15 07:08:24;;;;;;;29.33;13.55;;;5.40;96.50;;;;;;5034706;28;20041;-77
2021/03/15 07:10:51;;;;;;;29.15;13.88;;;5.50;96.60;;;;;;5014453;28;20426;-76
2021/03/15 07:13:19;;;;;;;28.75;14.05;;;5.60;96.70;;;;;;5028760;28;20018;-75
2021/03/15 07:15:47;;;;;;;27.23;13.23;;;5.60;96.70;;;;;;5028179;28;20056;-76
2021/03/15 07:18:18;;;;;;;25.27;11.55;;;5.70;96.60;;;;;;5035273;28;20079;-77
2021/03/15 07:20:45;;;;;;;26.30;10.85;;;5.70;96.60;;;;;;5033521;28;20033;-75
2021/03/15 07:23:12;;;;;;;22.42;10.98;;;5.80;96.60;;;;;;5028320;28;20030;-76
2021/03/15 07:25:38;;;;;;;28.52;9.82;;;5.90;96.60;;;;;;5029748;28;20036;-77
2021/03/15 07:28:03;;;;;;;17.52;8.75;;;6.00;96.60;;;;;;5029705;28;20029;-80
2021/03/15 07:30:30;;;;;;;22.50;9.25;;;6.00;96.40;;;;;;5033462;28;20041;-78
2021/03/15 07:33:04;;;;;;;22.05;9.13;;;6.00;96.30;;;;;;5034468;28;20053;-79
2021/03/15 07:35:33;;;;;;;21.75;8.73;;;6.10;96.30;;;;;;5016762;28;20079;-80
2021/03/15 07:37:59;;;;;;;16.60;6.00;;;6.10;96.20;;;;;;5034829;28;20056;-80
2021/03/15 07:40:30;;;;;;;19.13;5.47;;;6.20;96.10;;;;;;5034740;28;20049;-78
2021/03/15 07:42:57;;;;;;;15.15;4.40;;;6.30;95.80;;;;;;5032187;28;20028;-78
2021/03/15 07:45:30;;;;;;;22.05;4.22;;;6.30;95.50;;;;;;5033024;28;20484;-80
2021/03/15 07:48:13;;;;;;;12.45;4.40;;;6.30;95.00;;;;;;5034829;28;20025;-77
2021/03/15 07:50:41;;;;;;;23.65;3.55;;;6.40;95.00;;;;;;5033453;28;20067;-78
2021/03/15 07:53:06;;;;;;;18.17;4.15;;;6.40;94.90;;;;;;5033311;28;20029;-78
2021/03/15 07:55:38;;;;;;;16.45;3.58;;;6.40;94.70;;;;;;5031730;28;20028;-77
2021/03/15 07:58:27;;;;;;;13.15;3.30;;;6.50;94.60;;;;;;5034490;28;20082;-79
2021/03/15 08:00:54;;;;;;;15.10;2.15;;;6.50;94.70;;;;;;5033386;28;20066;-79
2021/03/15 08:03:23;;;;;;;15.73;2.38;;;6.50;94.50;;;;;;5033677;28;20047;-79
2021/03/15 08:05:49;;;;;;;13.63;2.50;;;6.60;94.10;;;;;;5027297;28;20021;-79
2021/03/15 08:08:15;;;;;;;13.32;2.83;;;6.60;93.90;;;;;;5033237;28;20021;-77
2021/03/15 08:10:42;;;;;;;14.57;2.67;;;6.50;94.00;;;;;;5031208;28;20033;-78
2021/03/15 08:13:11;;;;;;;12.98;2.45;;;6.60;94.20;;;;;;5032985;28;20031;-77
2021/03/15 08:15:37;;;;;;;7.95;1.65;;;6.70;94.10;;;;;;5031592;28;20391;-77
2021/03/15 08:18:08;;;;;;;18.15;2.22;;;6.80;94.00;;;;;;5022608;28;20032;-77
2021/03/15 08:20:35;;;;;;;26.13;2.53;;;7.00;94.00;;;;;;5032948;28;20025;-77
2021/03/15 08:23:02;;;;;;;11.27;2.20;;;7.10;93.60;;;;;;5015444;28;20080;-77
2021/03/15 08:25:28;;;;;;;17.45;2.03;;;7.10;93.30;;;;;;5032689;28;20487;-78
2021/03/15 08:27:57;;;;;;;12.98;1.63;;;7.10;93.10;;;;;;5033858;28;20033;-80
2021/03/15 08:30:28;;;;;;;14.60;1.88;;;7.00;93.20;;;;;;5040189;28;20069;-80
2021/03/15 08:32:54;;;;;;;15.68;1.45;;;7.00;93.40;;;;;;5038134;28;20418;-79
2021/03/15 08:35:21;;;;;;;18.48;2.65;;;6.90;92.70;;;;;;5034215;28;20029;-81
2021/03/15 08:38:03;;;;;;;6.47;0.63;;;6.80;92.50;;;;;;5027280;28;20025;-82
2021/03/15 08:40:44;;;;;;;5.55;0.45;;;6.70;92.60;;;;;;5032442;28;20034;-82
2021/03/15 08:43:19;;;;;;;9.98;0.50;;;6.50;92.20;;;;;;5034558;28;20064;-81
2021/03/15 08:46:08;;;;;;;9.48;0.60;;;6.50;92.50;;;;;;5034924;28;20026;-81
2021/03/15 08:48:36;;;;;;;9.32;0.60;;;6.50;92.10;;;;;;5031987;28;20030;-80
2021/03/15 08:51:06;;;;;;;15.63;0.90;;;6.50;91.70;;;;;;5030720;28;20025;-81
2021/03/15 08:53:37;;;;;;;7.97;0.70;;;6.60;91.40;;;;;;5032861;28;20027;-83
2021/03/15 08:56:39;;;;;;;9.93;0.47;;;6.70;91.20;;;;;;5031656;28;20029;-80
2021/03/15 08:59:09;;;;;;;10.85;0.93;;;6.80;91.20;;;;;;5001918;28;20069;-82
2021/03/15 09:01:49;;;;;;;8.48;1.17;;;6.90;90.80;;;;;;5026925;28;20033;-81
2021/03/15 09:04:48;;;;;;;7.40;0.50;;;6.90;90.70;;;;;;5023674;28;20063;-80
2021/03/15 09:07:28;;;;;;;9.90;0.55;;;7.00;90.50;;;;;;4976377;28;20046;-81
2021/03/15 09:09:54;;;;;;;8.82;0.43;;;7.10;89.00;;;;;;5017910;28;20108;-80
2021/03/15 09:12:19;;;;;;;8.52;0.43;;;7.20;89.00;;;;;;5019013;28;20196;-80
2021/03/15 09:14:54;;;;;;;6.90;0.70;;;7.40;89.30;;;;;;5018374;28;20108;-82
2021/03/15 09:17:19;;;;;;;9.68;0.63;;;7.40;87.50;;;;;;5028240;28;20035;-77
2021/03/15 09:19:48;;;;;;;8.90;0.50;;;7.40;86.70;;;;;;5022481;28;20100;-78
2021/03/15 09:22:27;;;;;;;7.38;0.40;;;7.50;85.30;;;;;;5012535;28;20073;-78
2021/03/15 09:25:14;;;;;;;10.95;0.50;;;7.60;86.00;;;;;;5018818;28;20515;-79
2021/03/15 09:27:42;;;;;;;8.18;0.50;;;7.60;85.30;;;;;;5033084;28;20507;-80
2021/03/15 09:30:09;;;;;;;9.18;1.02;;;7.80;85.00;;;;;;5031708;28;20399;-79
2021/03/15 09:32:37;;;;;;;9.10;0.80;;;7.90;83.90;;;;;;5030802;28;20498;-79
2021/03/15 09:35:18;;;;;;;7.93;0.40;;;8.00;83.10;;;;;;5029266;28;20021;-80
2021/03/15 09:37:48;;;;;;;10.70;0.90;;;8.10;81.10;;;;;;5016606;28;20037;-80
2021/03/15 09:40:15;;;;;;;5.20;0.60;;;8.20;81.00;;;;;;5028715;28;20061;-78
2021/03/15 09:42:41;;;;;;;11.75;0.90;;;8.10;78.00;;;;;;5028931;28;20513;-80
2021/03/15 09:45:34;;;;;;;7.30;0.50;;;8.00;78.60;;;;;;5031597;28;20045;-81
2021/03/15 09:48:01;;;;;;;11.77;0.75;;;8.00;79.80;;;;;;5030431;28;20110;-77
2021/03/15 09:50:32;;;;;;;10.43;0.60;;;8.00;80.10;;;;;;5035294;28;21841;-79
2021/03/15 09:53:11;;;;;;;9.07;0.70;;;8.10;81.30;;;;;;5037703;28;20025;-80
2021/03/15 09:55:36;;;;;;;9.57;0.65;;;8.30;80.50;;;;;;5036661;28;20037;-80
2021/03/15 09:58:06;;;;;;;7.25;0.52;;;8.40;80.30;;;;;;5036093;28;20025;-79
2021/03/15 10:00:33;;;;;;;5.55;0.55;;;8.40;79.20;;;;;;5036640;28;20033;-79
2021/03/15 10:02:58;;;;;;;8.27;0.65;;;8.20;79.20;;;;;;5035103;28;20035;-79
2021/03/15 10:05:24;;;;;;;12.38;0.73;;;8.10;79.70;;;;;;5035602;28;20491;-81
2021/03/15 10:07:50;;;;;;;7.07;0.50;;;7.90;80.30;;;;;;5028629;28;20021;-80
2021/03/15 10:10:21;;;;;;;7.43;0.70;;;7.80;81.00;;;;;;5024353;28;20056;-78
2021/03/15 10:12:59;;;;;;;8.88;1.13;;;7.70;81.10;;;;;;5035821;28;20029;-81
2021/03/15 10:15:25;;;;;;;6.00;0.60;;;7.60;82.50;;;;;;5034446;28;20025;-79
2021/03/15 10:17:51;;;;;;;8.23;0.50;;;7.70;81.90;;;;;;5017473;28;20018;-79
2021/03/15 10:20:37;;;;;;;7.63;0.40;;;7.90;82.00;;;;;;5028217;28;20365;-80
2021/03/15 10:23:17;;;;;;;4.88;0.32;;;8.20;81.10;;;;;;5035867;28;20064;-79
2021/03/15 10:25:57;;;;;;;7.28;0.60;;;8.50;80.20;;;;;;5027938;28;20033;-82
2021/03/15 10:28:24;;;;;;;5.03;0.30;;;8.60;78.80;;;;;;5035853;28;20091;-80
2021/03/15 10:30:50;;;;;;;6.10;0.40;;;8.80;77.60;;;;;;5027414;28;20036;-79
2021/03/15 10:33:20;;;;;;;8.20;0.60;;;8.90;74.90;;;;;;5026440;28;20491;-79
2021/03/15 10:35:46;;;;;;;6.60;1.08;;;8.80;75.00;;;;;;5030517;28;20026;-80
2021/03/15 10:38:13;;;;;;;10.27;0.35;;;8.90;76.10;;;;;;5030443;28;20014;-81
2021/03/15 10:40:39;;;;;;;5.28;0.40;;;9.00;75.10;;;;;;5017722;28;20042;-80
2021/03/15 10:43:05;;;;;;;7.68;0.57;;;8.90;75.80;;;;;;5016038;28;20053;-80
2021/03/15 10:45:31;;;;;;;9.07;0.38;;;8.80;77.00;;;;;;5015862;28;20112;-81
2021/03/15 10:48:05;;;;;;;9.30;0.60;;;8.80;76.90;;;;;;5020484;28;20034;-81
2021/03/15 10:50:32;;;;;;;9.90;1.20;;;8.70;76.60;;;;;;5011743;28;20025;-84
2021/03/15 10:53:10;;;;;;;9.73;0.63;;;8.70;76.10;;;;;;5023551;28;20483;-81
2021/03/15 10:55:35;;;;;;;5.72;0.75;;;8.70;75.10;;;;;;5023561;28;20052;-81
2021/03/15 10:58:12;;;;;;;5.03;0.30;;;8.60;74.90;;;;;;5030605;28;20033;-80
2021/03/15 11:00:43;;;;;;;7.15;0.73;;;8.60;74.80;;;;;;5012463;28;20424;-82
2021/03/15 11:03:26;;;;;;;10.32;1.00;;;8.50;75.60;;;;;;5027089;28;20044;-81
2021/03/15 11:06:05;;;;;;;5.30;0.40;;;8.50;75.40;;;;;;5025199;28;20112;-81
2021/03/15 11:08:35;;;;;;;5.03;0.40;;;8.60;74.40;;;;;;5034820;28;20033;-84
2021/03/15 11:11:17;;;;;;;2.17;0.25;;;8.50;73.60;;;;;;5034283;28;20089;-79
2021/03/15 11:13:44;;;;;;;8.98;0.47;;;8.60;74.60;;;;;;5035308;28;20537;-82
2021/03/15 11:16:36;;;;;;;8.70;0.45;;;8.60;73.20;;;;;;5034332;28;20376;-81
2021/03/15 11:19:04;;;;;;;8.82;0.52;;;8.60;72.20;;;;;;5020110;28;20026;-82
2021/03/15 11:21:41;;;;;;;2.90;0.40;;;8.60;72.30;;;;;;5023627;28;20064;-83
2021/03/15 11:24:09;;;;;;;6.90;0.50;;;8.60;72.60;;;;;;5048467;28;20096;-80
2021/03/15 11:26:53;;;;;;;8.35;0.65;;;8.80;73.80;;;;;;5035979;28;20060;-83
2021/03/15 11:29:41;;;;;;;9.05;0.68;;;8.90;73.80;;;;;;5035592;28;20056;-84
2021/03/15 11:32:12;;;;;;;9.75;0.40;;;8.80;73.80;;;;;;5024200;28;20064;-81
2021/03/15 11:35:04;;;;;;;10.43;0.60;;;8.80;74.20;;;;;;5023439;28;20017;-82
2021/03/15 11:37:32;;;;;;;7.15;0.50;;;8.70;73.20;;;;;;5030443;28;20038;-80
2021/03/15 11:39:58;;;;;;;13.55;0.73;;;8.70;75.10;;;;;;5031111;28;20104;-81
2021/03/15 11:42:28;;;;;;;7.47;0.70;;;8.70;75.90;;;;;;5034252;28;20077;-81
2021/03/15 11:44:53;;;;;;;9.52;0.68;;;8.90;76.00;;;;;;5036118;28;20025;-83
2021/03/15 11:47:19;;;;;;;7.25;0.50;;;8.90;74.90;;;;;;5035430;28;20033;-82
2021/03/15 11:49:45;;;;;;;4.93;0.35;;;8.70;74.40;;;;;;5034732;28;20112;-82
2021/03/15 11:52:10;;;;;;;11.77;0.63;;;8.40;75.60;;;;;;5034953;28;20037;-83
2021/03/15 11:54:36;;;;;;;6.47;0.50;;;8.20;78.00;;;;;;5035741;28;20049;-83
2021/03/15 11:57:02;;;;;;;10.02;1.08;;;8.00;79.50;;;;;;5024383;28;20080;-82
2021/03/15 11:59:28;;;;;;;7.38;0.50;;;8.00;81.00;;;;;;5032170;28;20033;-84
2021/03/15 12:01:53;;;;;;;9.32;0.45;;;8.20;80.40;;;;;;5035517;28;20387;-81
2021/03/15 12:04:19;;;;;;;14.05;1.35;;;8.40;78.80;;;;;;5036000;28;20021;-82
2021/03/15 12:06:45;;;;;;;6.88;0.50;;;8.40;79.00;;;;;;5013066;28;20476;-82
2021/03/15 12:09:10;;;;;;;9.07;0.50;;;8.20;79.30;;;;;;5016248;28;20025;-82
2021/03/15 12:11:36;;;;;;;10.85;0.65;;;8.00;80.60;;;;;;5031663;28;20116;-82
2021/03/15 12:14:02;;;;;;;7.72;0.47;;;7.90;82.20;;;;;;5034400;28;20392;-81
2021/03/15 12:16:28;;;;;;;12.63;0.65;;;8.00;83.20;;;;;;5026235;28;20023;-83
2021/03/15 12:18:55;;;;;;;9.77;0.70;;;8.20;84.00;;;;;;5019738;28;20032;-83
2021/03/15 12:21:21;;;;;;;5.95;0.40;;;8.70;82.70;;;;;;5032380;28;20021;-85
2021/03/15 12:23:47;;;;;;;14.57;1.05;;;8.80;79.80;;;;;;5034753;28;20078;-81
2021/03/15 12:26:12;;;;;;;8.13;0.52;;;8.80;79.20;;;;;;5035153;28;20030;-85
2021/03/15 12:28:38;;;;;;;11.25;0.70;;;8.40;80.60;;;;;;5035878;28;20060;-82
2021/03/15 12:31:03;;;;;;;9.73;0.60;;;7.90;82.30;;;;;;5034512;28;20034;-83
2021/03/15 12:33:29;;;;;;;10.63;2.10;;;7.50;86.00;;;;;;5031715;28;20049;-89
2021/03/15 12:35:54;;;;;;;6.45;0.70;;;7.10;88.30;;;;;;5036872;28;20021;-90
2021/03/15 12:38:20;;;;;;;9.57;0.70;;;6.80;90.30;;;;;;5035026;28;20083;-87
2021/03/15 12:40:45;;;;;;;9.27;0.40;;;6.60;90.90;;;;;;5042981;28;20032;-88
2021/03/15 12:43:11;;;;;;;5.53;0.82;;;6.60;91.30;;;;;;5023385;28;20041;-86
2021/03/15 12:45:36;;;;;;;6.68;0.40;;;6.60;91.20;;;;;;5020522;28;20101;-91
2021/03/15 12:48:02;;;;;;;5.45;0.30;;;6.50;91.10;;;;;;5019494;28;20057;-92
2021/03/15 12:50:28;;;;;;;4.18;0.20;;;6.50;91.30;;;;;;5037890;28;20028;-90
2021/03/15 12:52:53;;;;;;;6.03;0.35;;;6.60;91.30;;;;;;5037026;28;20025;-91
2021/03/15 12:55:19;;;;;;;4.45;0.40;;;6.80;91.20;;;;;;5036613;28;20160;-89
2021/03/15 12:57:44;;;;;;;4.93;0.55;;;7.00;91.10;;;;;;5034348;28;20025;-86
2021/03/15 13:00:12;;;;;;;5.65;0.40;;;7.20;90.80;;;;;;5036269;28;20052;-86
2021/03/15 13:02:37;;;;;;;9.60;1.45;;;7.30;90.70;;;;;;5030598;28;20044;-86
2021/03/15 13:05:04;;;;;;;10.65;1.13;;;7.50;90.60;;;;;;5033414;28;20101;-84